sensor_id;sensor_type;location;lat;lon;timestamp;pressure;altitude;pressure_sealevel;temperature;humidity
20971;BME280;10644;48.834;10.088;2023-05-29T00:01:26;96686.81;;;21.02;41.72
20971;BME280;10644;48.834;10.088;2023-05-29T00:03:51;96677.91;;;20.95;41.53
20971;BME280;10644;48.834;10.088;2023-05-29T00:06:18;96688.91;;;20.89;41.78
20971;BME280;10644;48.834;10.088;2023-05-29T00:08:44;96679.38;;;20.80;41.80
20971;BME280;10644;48.834;10.088;2023-05-29T00:11:10;96687.19;;;20.80;41.97
20971;BME280;10644;48.834;10.088;2023-05-29T00:13:35;96694.72;;;20.73;41.99
20971;BME280;10644;48.834;10.088;2023-05-29T00:16:01;96696.16;;;20.68;42.15
20971;BME280;10644;48.834;10.088;2023-05-29T00:18:28;96699.47;;;20.60;42.33
20971;BME280;10644;48.834;10.088;2023-05-29T00:20:54;96698.22;;;20.55;42.25
20971;BME280;10644;48.834;10.088;2023-05-29T00:23:21;96716.72;;;20.61;42.23
20971;BME280;10644;48.834;10.088;2023-05-29T00:25:46;96710.16;;;20.57;42.31
20971;BME280;10644;48.834;10.088;2023-05-29T00:28:12;96695.81;;;20.44;42.22
20971;BME280;10644;48.834;10.088;2023-05-29T00:30:40;96694.19;;;20.43;42.53
20971;BME280;10644;48.834;10.088;2023-05-29T00:33:05;96693.38;;;20.33;42.39
20971;BME280;10644;48.834;10.088;2023-05-29T00:35:31;96697.56;;;20.07;42.82
20971;BME280;10644;48.834;10.088;2023-05-29T00:37:57;96689.03;;;20.05;43.23
20971;BME280;10644;48.834;10.088;2023-05-29T00:40:23;96704.41;;;20.08;43.10
20971;BME280;10644;48.834;10.088;2023-05-29T00:42:51;96693.75;;;20.11;43.04
20971;BME280;10644;48.834;10.088;2023-05-29T00:45:17;96694.81;;;20.18;42.86
20971;BME280;10644;48.834;10.088;2023-05-29T00:47:43;96705.75;;;20.21;42.77
20971;BME280;10644;48.834;10.088;2023-05-29T00:50:15;96700.97;;;20.17;42.72
20971;BME280;10644;48.834;10.088;2023-05-29T00:52:41;96704.38;;;20.17;42.99
20971;BME280;10644;48.834;10.088;2023-05-29T00:55:09;96681.97;;;20.07;42.82
20971;BME280;10644;48.834;10.088;2023-05-29T00:57:35;96697.56;;;19.97;43.35
20971;BME280;10644;48.834;10.088;2023-05-29T01:00:04;96687.31;;;19.86;43.10
20971;BME280;10644;48.834;10.088;2023-05-29T01:02:39;96687.59;;;19.83;43.29
20971;BME280;10644;48.834;10.088;2023-05-29T01:05:05;96679.66;;;19.85;43.12
20971;BME280;10644;48.834;10.088;2023-05-29T01:07:32;96677.09;;;19.66;43.51
20971;BME280;10644;48.834;10.088;2023-05-29T01:10:01;96682.41;;;19.74;43.45
20971;BME280;10644;48.834;10.088;2023-05-29T01:12:55;96679.50;;;19.77;42.87
20971;BME280;10644;48.834;10.088;2023-05-29T01:16:08;96688.41;;;19.65;43.04
20971;BME280;10644;48.834;10.088;2023-05-29T01:18:46;96686.53;;;19.67;43.04
20971;BME280;10644;48.834;10.088;2023-05-29T01:24:14;96693.75;;;19.73;43.72
20971;BME280;10644;48.834;10.088;2023-05-29T01:26:45;96692.81;;;19.74;43.46
20971;BME280;10644;48.834;10.088;2023-05-29T01:29:14;96683.63;;;19.60;43.50
20971;BME280;10644;48.834;10.088;2023-05-29T01:31:42;96687.31;;;19.58;43.83
20971;BME280;10644;48.834;10.088;2023-05-29T01:34:07;96683.78;;;19.59;43.72
20971;BME280;10644;48.834;10.088;2023-05-29T01:36:35;96685.41;;;19.60;43.65
20971;BME280;10644;48.834;10.088;2023-05-29T01:39:03;96684.06;;;19.56;43.78
20971;BME280;10644;48.834;10.088;2023-05-29T01:41:29;96689.13;;;19.57;43.90
20971;BME280;10644;48.834;10.088;2023-05-29T01:43:57;96702.66;;;19.61;43.69
20971;BME280;10644;48.834;10.088;2023-05-29T01:46:25;96680.75;;;19.54;43.63
20971;BME280;10644;48.834;10.088;2023-05-29T01:48:53;96686.09;;;19.43;43.99
20971;BME280;10644;48.834;10.088;2023-05-29T01:51:20;96680.31;;;19.20;44.17
20971;BME280;10644;48.834;10.088;2023-05-29T01:53:46;96681.56;;;19.26;44.44
20971;BME280;10644;48.834;10.088;2023-05-29T01:56:11;96674.72;;;19.34;44.04
20971;BME280;10644;48.834;10.088;2023-05-29T01:58:38;96682.94;;;19.39;44.17
20971;BME280;10644;48.834;10.088;2023-05-29T02:01:06;96669.56;;;19.44;43.91
20971;BME280;10644;48.834;10.088;2023-05-29T02:03:32;96675.44;;;19.46;43.68
20971;BME280;10644;48.834;10.088;2023-05-29T02:05:59;96686.50;;;19.29;44.06
20971;BME280;10644;48.834;10.088;2023-05-29T02:08:25;96678.50;;;19.02;44.66
20971;BME280;10644;48.834;10.088;2023-05-29T02:10:50;96682.06;;;19.10;44.28
20971;BME280;10644;48.834;10.088;2023-05-29T02:13:16;96664.84;;;19.00;44.37
20971;BME280;10644;48.834;10.088;2023-05-29T02:15:42;96669.34;;;18.98;44.55
20971;BME280;10644;48.834;10.088;2023-05-29T02:18:13;96665.94;;;18.97;44.33
20971;BME280;10644;48.834;10.088;2023-05-29T02:20:40;96673.00;;;18.86;44.94
20971;BME280;10644;48.834;10.088;2023-05-29T02:23:05;96676.75;;;18.63;45.01
20971;BME280;10644;48.834;10.088;2023-05-29T02:25:34;96679.91;;;18.66;44.66
20971;BME280;10644;48.834;10.088;2023-05-29T02:28:00;96667.44;;;18.51;45.19
20971;BME280;10644;48.834;10.088;2023-05-29T02:30:27;96668.84;;;18.55;45.47
20971;BME280;10644;48.834;10.088;2023-05-29T02:32:52;96680.56;;;18.59;45.17
20971;BME280;10644;48.834;10.088;2023-05-29T02:35:21;96689.78;;;18.33;45.87
20971;BME280;10644;48.834;10.088;2023-05-29T02:37:50;96666.53;;;18.31;45.83
20971;BME280;10644;48.834;10.088;2023-05-29T02:40:16;96677.66;;;18.43;45.83
20971;BME280;10644;48.834;10.088;2023-05-29T02:42:44;96678.91;;;18.48;45.32
20971;BME280;10644;48.834;10.088;2023-05-29T02:45:13;96687.13;;;18.53;45.38
20971;BME280;10644;48.834;10.088;2023-05-29T02:47:46;96679.47;;;18.52;45.42
20971;BME280;10644;48.834;10.088;2023-05-29T02:50:11;96665.94;;;18.48;45.24
20971;BME280;10644;48.834;10.088;2023-05-29T02:52:39;96680.50;;;18.40;46.09
20971;BME280;10644;48.834;10.088;2023-05-29T02:55:06;96680.25;;;18.43;45.67
20971;BME280;10644;48.834;10.088;2023-05-29T02:57:32;96674.41;;;18.30;46.29
20971;BME280;10644;48.834;10.088;2023-05-29T02:59:57;96678.44;;;18.34;45.91
20971;BME280;10644;48.834;10.088;2023-05-29T03:02:23;96695.84;;;18.02;46.69
20971;BME280;10644;48.834;10.088;2023-05-29T03:04:48;96668.72;;;17.85;46.41
20971;BME280;10644;48.834;10.088;2023-05-29T03:07:17;96674.75;;;17.86;46.48
20971;BME280;10644;48.834;10.088;2023-05-29T03:09:45;96680.00;;;17.95;46.56
20971;BME280;10644;48.834;10.088;2023-05-29T03:12:13;96675.88;;;17.93;46.44
20971;BME280;10644;48.834;10.088;2023-05-29T03:14:42;96679.41;;;17.92;46.60
20971;BME280;10644;48.834;10.088;2023-05-29T03:17:07;96672.72;;;17.89;46.54
20971;BME280;10644;48.834;10.088;2023-05-29T03:19:33;96672.34;;;17.94;46.72
20971;BME280;10644;48.834;10.088;2023-05-29T03:21:58;96681.13;;;18.02;46.69
20971;BME280;10644;48.834;10.088;2023-05-29T03:24:24;96659.28;;;18.05;46.54
20971;BME280;10644;48.834;10.088;2023-05-29T03:26:49;96663.09;;;18.01;46.82
20971;BME280;10644;48.834;10.088;2023-05-29T03:29:15;96665.16;;;18.07;47.47
20971;BME280;10644;48.834;10.088;2023-05-29T03:31:41;96669.66;;;18.05;47.44
20971;BME280;10644;48.834;10.088;2023-05-29T03:34:07;96664.72;;;18.02;46.92
20971;BME280;10644;48.834;10.088;2023-05-29T03:36:32;96669.91;;;18.02;46.95
20971;BME280;10644;48.834;10.088;2023-05-29T03:38:58;96673.09;;;17.85;47.42
20971;BME280;10644;48.834;10.088;2023-05-29T03:41:23;96673.41;;;17.71;47.47
20971;BME280;10644;48.834;10.088;2023-05-29T03:43:50;96668.41;;;17.79;47.32
20971;BME280;10644;48.834;10.088;2023-05-29T03:46:16;96668.13;;;17.72;47.56
20971;BME280;10644;48.834;10.088;2023-05-29T03:48:41;96676.63;;;17.84;47.28
20971;BME280;10644;48.834;10.088;2023-05-29T03:51:06;96670.75;;;17.61;47.83
20971;BME280;10644;48.834;10.088;2023-05-29T03:53:35;96679.78;;;17.67;47.84
20971;BME280;10644;48.834;10.088;2023-05-29T03:56:00;96670.13;;;17.69;47.47
20971;BME280;10644;48.834;10.088;2023-05-29T03:58:25;96674.59;;;17.67;47.88
20971;BME280;10644;48.834;10.088;2023-05-29T04:00:51;96671.84;;;17.59;48.09
20971;BME280;10644;48.834;10.088;2023-05-29T04:03:16;96672.34;;;17.53;47.91
20971;BME280;10644;48.834;10.088;2023-05-29T04:05:41;96681.28;;;17.49;48.26
20971;BME280;10644;48.834;10.088;2023-05-29T04:08:07;96689.56;;;17.43;48.51
20971;BME280;10644;48.834;10.088;2023-05-29T04:10:35;96681.69;;;17.44;48.33
20971;BME280;10644;48.834;10.088;2023-05-29T04:13:02;96681.75;;;17.54;48.34
20971;BME280;10644;48.834;10.088;2023-05-29T04:15:29;96685.97;;;17.55;47.77
20971;BME280;10644;48.834;10.088;2023-05-29T04:17:55;96681.78;;;17.43;48.31
20971;BME280;10644;48.834;10.088;2023-05-29T04:20:23;96693.09;;;17.42;48.50
20971;BME280;10644;48.834;10.088;2023-05-29T04:22:52;96686.03;;;17.33;48.77
20971;BME280;10644;48.834;10.088;2023-05-29T04:25:17;96700.50;;;17.35;48.77
20971;BME280;10644;48.834;10.088;2023-05-29T04:27:43;96697.34;;;17.32;49.08
20971;BME280;10644;48.834;10.088;2023-05-29T04:30:14;96703.72;;;17.28;49.35
20971;BME280;10644;48.834;10.088;2023-05-29T04:32:42;96702.56;;;17.21;49.69
20971;BME280;10644;48.834;10.088;2023-05-29T04:35:08;96703.72;;;17.28;49.49
20971;BME280;10644;48.834;10.088;2023-05-29T04:37:34;96699.81;;;17.44;49.08
20971;BME280;10644;48.834;10.088;2023-05-29T04:40:07;96710.94;;;17.56;48.99
20971;BME280;10644;48.834;10.088;2023-05-29T04:42:36;96710.97;;;17.34;50.48
20971;BME280;10644;48.834;10.088;2023-05-29T04:45:02;96706.59;;;17.14;51.11
20971;BME280;10644;48.834;10.088;2023-05-29T04:47:31;96713.16;;;17.07;51.30
20971;BME280;10644;48.834;10.088;2023-05-29T04:49:59;96709.69;;;16.97;50.85
20971;BME280;10644;48.834;10.088;2023-05-29T04:52:24;96720.03;;;16.97;51.44
20971;BME280;10644;48.834;10.088;2023-05-29T04:54:50;96714.56;;;17.22;50.51
20971;BME280;10644;48.834;10.088;2023-05-29T04:57:16;96710.41;;;17.41;50.19
20971;BME280;10644;48.834;10.088;2023-05-29T04:59:41;96706.94;;;17.52;49.80
20971;BME280;10644;48.834;10.088;2023-05-29T05:02:06;96724.47;;;17.80;49.73
20971;BME280;10644;48.834;10.088;2023-05-29T05:04:32;96725.13;;;17.72;49.78
20971;BME280;10644;48.834;10.088;2023-05-29T05:07:00;96708.56;;;17.84;49.51
20971;BME280;10644;48.834;10.088;2023-05-29T05:09:25;96719.31;;;18.00;49.04
20971;BME280;10644;48.834;10.088;2023-05-29T05:11:51;96727.16;;;17.69;49.79
20971;BME280;10644;48.834;10.088;2023-05-29T05:14:16;96722.38;;;17.74;49.65
20971;BME280;10644;48.834;10.088;2023-05-29T05:16:42;96731.50;;;17.89;49.73
20971;BME280;10644;48.834;10.088;2023-05-29T05:19:07;96735.16;;;18.07;49.08
20971;BME280;10644;48.834;10.088;2023-05-29T05:21:33;96736.00;;;18.07;49.36
20971;BME280;10644;48.834;10.088;2023-05-29T05:23:59;96727.84;;;18.12;49.13
20971;BME280;10644;48.834;10.088;2023-05-29T05:26:25;96732.44;;;18.29;49.28
20971;BME280;10644;48.834;10.088;2023-05-29T05:28:51;96744.59;;;18.49;48.79
20971;BME280;10644;48.834;10.088;2023-05-29T05:31:17;96732.47;;;18.59;48.43
20971;BME280;10644;48.834;10.088;2023-05-29T05:33:42;96750.97;;;18.75;48.21
20971;BME280;10644;48.834;10.088;2023-05-29T05:36:08;96736.63;;;18.71;48.04
20971;BME280;10644;48.834;10.088;2023-05-29T05:38:33;96739.16;;;18.82;47.69
20971;BME280;10644;48.834;10.088;2023-05-29T05:40:58;96744.78;;;18.96;47.33
20971;BME280;10644;48.834;10.088;2023-05-29T05:43:24;96734.34;;;18.87;47.33
20971;BME280;10644;48.834;10.088;2023-05-29T05:45:51;96740.81;;;19.02;46.91
20971;BME280;10644;48.834;10.088;2023-05-29T05:48:17;96741.41;;;19.15;46.79
20971;BME280;10644;48.834;10.088;2023-05-29T05:50:42;96730.53;;;19.21;46.70
20971;BME280;10644;48.834;10.088;2023-05-29T05:53:08;96739.22;;;19.20;46.74
20971;BME280;10644;48.834;10.088;2023-05-29T05:55:33;96752.94;;;19.22;47.33
20971;BME280;10644;48.834;10.088;2023-05-29T05:58:01;96755.78;;;19.19;48.00
20971;BME280;10644;48.834;10.088;2023-05-29T06:00:26;96750.91;;;19.25;47.78
20971;BME280;10644;48.834;10.088;2023-05-29T06:02:51;96753.84;;;19.11;48.52
20971;BME280;10644;48.834;10.088;2023-05-29T06:05:19;96760.09;;;18.99;48.62
20971;BME280;10644;48.834;10.088;2023-05-29T06:07:44;96758.75;;;19.05;48.82
20971;BME280;10644;48.834;10.088;2023-05-29T06:10:10;96759.25;;;19.29;48.27
20971;BME280;10644;48.834;10.088;2023-05-29T06:12:36;96753.81;;;19.51;47.13
20971;BME280;10644;48.834;10.088;2023-05-29T06:15:03;96759.00;;;19.70;46.82
20971;BME280;10644;48.834;10.088;2023-05-29T06:17:29;96754.78;;;19.69;46.94
20971;BME280;10644;48.834;10.088;2023-05-29T06:19:55;96749.31;;;19.72;46.58
20971;BME280;10644;48.834;10.088;2023-05-29T06:22:20;96753.84;;;19.89;46.59
20971;BME280;10644;48.834;10.088;2023-05-29T06:24:46;96757.66;;;19.85;46.88
20971;BME280;10644;48.834;10.088;2023-05-29T06:27:11;96756.00;;;19.93;47.00
20971;BME280;10644;48.834;10.088;2023-05-29T06:29:36;96759.59;;;19.83;47.60
20971;BME280;10644;48.834;10.088;2023-05-29T06:32:02;96772.28;;;19.86;47.29
20971;BME280;10644;48.834;10.088;2023-05-29T06:34:27;96776.00;;;19.74;47.73
20971;BME280;10644;48.834;10.088;2023-05-29T06:36:55;96781.56;;;19.60;47.78
20971;BME280;10644;48.834;10.088;2023-05-29T06:39:22;96785.44;;;19.65;48.04
20971;BME280;10644;48.834;10.088;2023-05-29T06:41:50;96782.53;;;19.68;47.97
20971;BME280;10644;48.834;10.088;2023-05-29T06:44:15;96784.47;;;19.76;48.14
20971;BME280;10644;48.834;10.088;2023-05-29T06:46:43;96782.81;;;19.84;48.06
20971;BME280;10644;48.834;10.088;2023-05-29T06:49:08;96780.94;;;19.96;47.80
20971;BME280;10644;48.834;10.088;2023-05-29T06:51:34;96791.03;;;19.99;48.05
20971;BME280;10644;48.834;10.088;2023-05-29T06:54:00;96791.75;;;20.20;47.77
20971;BME280;10644;48.834;10.088;2023-05-29T06:56:25;96793.78;;;20.26;47.44
20971;BME280;10644;48.834;10.088;2023-05-29T06:58:51;96780.38;;;20.40;46.90
20971;BME280;10644;48.834;10.088;2023-05-29T07:01:17;96784.19;;;20.45;45.95
20971;BME280;10644;48.834;10.088;2023-05-29T07:03:45;96788.22;;;20.67;45.95
20971;BME280;10644;48.834;10.088;2023-05-29T07:06:11;96785.88;;;20.73;46.62
20971;BME280;10644;48.834;10.088;2023-05-29T07:08:36;96790.41;;;20.71;45.59
20971;BME280;10644;48.834;10.088;2023-05-29T07:11:02;96788.47;;;20.73;46.35
20971;BME280;10644;48.834;10.088;2023-05-29T07:13:27;96798.31;;;20.98;46.28
20971;BME280;10644;48.834;10.088;2023-05-29T07:15:52;96805.97;;;21.00;44.47
20971;BME280;10644;48.834;10.088;2023-05-29T07:18:18;96798.84;;;21.02;43.89
20971;BME280;10644;48.834;10.088;2023-05-29T07:20:43;96797.97;;;21.38;43.25
20971;BME280;10644;48.834;10.088;2023-05-29T07:23:09;96799.22;;;21.34;42.31
20971;BME280;10644;48.834;10.088;2023-05-29T07:25:34;96784.66;;;21.41;41.66
20971;BME280;10644;48.834;10.088;2023-05-29T07:27:59;96795.91;;;21.59;41.85
20971;BME280;10644;48.834;10.088;2023-05-29T07:30:27;96792.44;;;21.68;41.17
20971;BME280;10644;48.834;10.088;2023-05-29T07:32:55;96798.91;;;21.64;41.02
20971;BME280;10644;48.834;10.088;2023-05-29T07:35:23;96792.44;;;21.68;40.68
20971;BME280;10644;48.834;10.088;2023-05-29T07:37:49;96796.72;;;21.86;40.45
20971;BME280;10644;48.834;10.088;2023-05-29T07:40:16;96809.91;;;22.02;40.55
20971;BME280;10644;48.834;10.088;2023-05-29T07:42:42;96796.63;;;21.96;40.33
20971;BME280;10644;48.834;10.088;2023-05-29T07:45:07;96786.09;;;22.23;39.87
20971;BME280;10644;48.834;10.088;2023-05-29T07:47:32;96805.28;;;22.14;38.75
20971;BME280;10644;48.834;10.088;2023-05-29T07:49:58;96803.34;;;22.16;39.55
20971;BME280;10644;48.834;10.088;2023-05-29T07:52:23;96793.31;;;22.29;39.16
20971;BME280;10644;48.834;10.088;2023-05-29T07:54:48;96791.44;;;22.39;38.67
20971;BME280;10644;48.834;10.088;2023-05-29T07:57:14;96783.47;;;22.40;38.29
20971;BME280;10644;48.834;10.088;2023-05-29T07:59:42;96790.41;;;22.49;38.78
20971;BME280;10644;48.834;10.088;2023-05-29T08:02:08;96800.84;;;22.75;38.44
20971;BME280;10644;48.834;10.088;2023-05-29T08:04:33;96797.44;;;23.08;37.97
20971;BME280;10644;48.834;10.088;2023-05-29T08:07:00;96799.41;;;23.06;37.64
20971;BME280;10644;48.834;10.088;2023-05-29T08:09:26;96794.47;;;23.03;36.66
20971;BME280;10644;48.834;10.088;2023-05-29T08:11:51;96801.97;;;23.23;36.84
20971;BME280;10644;48.834;10.088;2023-05-29T08:14:17;96795.91;;;23.23;36.68
20971;BME280;10644;48.834;10.088;2023-05-29T08:16:42;96788.31;;;23.12;35.95
20971;BME280;10644;48.834;10.088;2023-05-29T08:19:08;96803.16;;;23.11;36.45
20971;BME280;10644;48.834;10.088;2023-05-29T08:21:33;96797.25;;;23.35;36.01
20971;BME280;10644;48.834;10.088;2023-05-29T08:23:59;96799.56;;;23.38;35.57
20971;BME280;10644;48.834;10.088;2023-05-29T08:26:25;96792.09;;;23.59;35.67
20971;BME280;10644;48.834;10.088;2023-05-29T08:28:51;96792.53;;;23.96;35.06
20971;BME280;10644;48.834;10.088;2023-05-29T08:31:16;96793.53;;;24.19;34.49
20971;BME280;10644;48.834;10.088;2023-05-29T08:33:42;96790.25;;;24.25;34.23
20971;BME280;10644;48.834;10.088;2023-05-29T08:36:07;96802.06;;;24.29;32.70
20971;BME280;10644;48.834;10.088;2023-05-29T08:38:34;96799.56;;;23.95;33.88
20971;BME280;10644;48.834;10.088;2023-05-29T08:40:59;96804.00;;;24.03;34.56
20971;BME280;10644;48.834;10.088;2023-05-29T08:43:29;96795.16;;;23.96;33.59
20971;BME280;10644;48.834;10.088;2023-05-29T08:45:59;96806.56;;;23.79;33.58
20971;BME280;10644;48.834;10.088;2023-05-29T08:48:27;96800.03;;;23.83;33.95
20971;BME280;10644;48.834;10.088;2023-05-29T08:50:55;96801.38;;;24.03;33.65
20971;BME280;10644;48.834;10.088;2023-05-29T08:53:24;96793.88;;;24.24;33.66
20971;BME280;10644;48.834;10.088;2023-05-29T08:55:50;96804.31;;;24.16;32.96
20971;BME280;10644;48.834;10.088;2023-05-29T08:58:22;96799.41;;;24.21;33.74
20971;BME280;10644;48.834;10.088;2023-05-29T09:00:49;96798.28;;;24.39;33.62
20971;BME280;10644;48.834;10.088;2023-05-29T09:03:15;96801.06;;;24.46;33.07
20971;BME280;10644;48.834;10.088;2023-05-29T09:05:45;96804.00;;;24.75;32.57
20971;BME280;10644;48.834;10.088;2023-05-29T09:08:13;96802.41;;;24.58;32.08
20971;BME280;10644;48.834;10.088;2023-05-29T09:10:41;96804.66;;;24.53;32.47
20971;BME280;10644;48.834;10.088;2023-05-29T09:13:07;96812.22;;;24.64;32.18
20971;BME280;10644;48.834;10.088;2023-05-29T09:15:37;96807.13;;;24.54;32.10
20971;BME280;10644;48.834;10.088;2023-05-29T09:18:05;96796.78;;;24.77;32.06
20971;BME280;10644;48.834;10.088;2023-05-29T09:20:33;96803.50;;;24.79;31.94
20971;BME280;10644;48.834;10.088;2023-05-29T09:23:03;96803.31;;;24.97;31.39
20971;BME280;10644;48.834;10.088;2023-05-29T09:25:35;96806.59;;;24.83;31.40
20971;BME280;10644;48.834;10.088;2023-05-29T09:28:06;96804.13;;;24.89;31.88
20971;BME280;10644;48.834;10.088;2023-05-29T09:30:34;96804.19;;;25.36;31.86
20971;BME280;10644;48.834;10.088;2023-05-29T09:33:00;96805.19;;;25.27;31.09
20971;BME280;10644;48.834;10.088;2023-05-29T09:35:32;96801.88;;;25.33;30.82
20971;BME280;10644;48.834;10.088;2023-05-29T09:37:57;96805.44;;;25.48;30.68
20971;BME280;10644;48.834;10.088;2023-05-29T09:40:25;96813.56;;;25.22;30.93
20971;BME280;10644;48.834;10.088;2023-05-29T09:42:50;96815.00;;;25.33;31.42
20971;BME280;10644;48.834;10.088;2023-05-29T09:45:20;96822.63;;;25.04;31.88
20971;BME280;10644;48.834;10.088;2023-05-29T09:47:46;96818.22;;;25.04;31.85
20971;BME280;10644;48.834;10.088;2023-05-29T09:50:19;96821.94;;;25.26;31.72
20971;BME280;10644;48.834;10.088;2023-05-29T09:52:45;96822.81;;;25.49;31.46
20971;BME280;10644;48.834;10.088;2023-05-29T09:55:13;96824.69;;;25.71;30.84
20971;BME280;10644;48.834;10.088;2023-05-29T09:57:45;96830.28;;;25.68;31.22
20971;BME280;10644;48.834;10.088;2023-05-29T10:00:12;96823.69;;;25.72;30.73
20971;BME280;10644;48.834;10.088;2023-05-29T10:02:38;96820.19;;;25.49;31.14
20971;BME280;10644;48.834;10.088;2023-05-29T10:05:08;96817.53;;;25.57;30.74
20971;BME280;10644;48.834;10.088;2023-05-29T10:07:36;96824.44;;;25.80;30.63
20971;BME280;10644;48.834;10.088;2023-05-29T10:10:04;96815.78;;;25.41;30.73
20971;BME280;10644;48.834;10.088;2023-05-29T10:12:32;96815.25;;;25.84;30.12
20971;BME280;10644;48.834;10.088;2023-05-29T10:15:01;96814.13;;;25.79;30.03
20971;BME280;10644;48.834;10.088;2023-05-29T10:17:32;96811.25;;;25.96;30.08
20971;BME280;10644;48.834;10.088;2023-05-29T10:20:05;96813.81;;;26.04;30.21
20971;BME280;10644;48.834;10.088;2023-05-29T10:22:32;96806.59;;;26.06;29.55
20971;BME280;10644;48.834;10.088;2023-05-29T10:24:59;96804.09;;;26.13;29.75
20971;BME280;10644;48.834;10.088;2023-05-29T10:27:26;96810.16;;;26.36;29.92
20971;BME280;10644;48.834;10.088;2023-05-29T10:30:11;96802.34;;;25.75;30.37
20971;BME280;10644;48.834;10.088;2023-05-29T10:35:22;96802.03;;;26.23;30.15
20971;BME280;10644;48.834;10.088;2023-05-29T10:37:56;96792.28;;;26.31;29.66
20971;BME280;10644;48.834;10.088;2023-05-29T10:40:26;96794.88;;;26.54;28.30
20971;BME280;10644;48.834;10.088;2023-05-29T10:42:52;96789.13;;;26.73;28.78
20971;BME280;10644;48.834;10.088;2023-05-29T10:50:46;96795.06;;;27.04;28.10
20971;BME280;10644;48.834;10.088;2023-05-29T10:53:16;96793.50;;;27.09;28.28
20971;BME280;10644;48.834;10.088;2023-05-29T10:55:43;96792.34;;;27.41;28.03
20971;BME280;10644;48.834;10.088;2023-05-29T10:58:22;96782.00;;;27.25;27.76
20971;BME280;10644;48.834;10.088;2023-05-29T11:00:52;96784.56;;;27.18;27.88
20971;BME280;10644;48.834;10.088;2023-05-29T11:03:41;96797.97;;;27.09;27.92
20971;BME280;10644;48.834;10.088;2023-05-29T11:06:16;96792.34;;;27.12;27.63
20971;BME280;10644;48.834;10.088;2023-05-29T11:08:45;96802.50;;;27.00;27.79
20971;BME280;10644;48.834;10.088;2023-05-29T11:11:21;96789.88;;;26.81;28.43
20971;BME280;10644;48.834;10.088;2023-05-29T11:13:55;96791.78;;;27.02;28.34
20971;BME280;10644;48.834;10.088;2023-05-29T11:18:51;96795.63;;;27.43;28.10
20971;BME280;10644;48.834;10.088;2023-05-29T11:24:27;96787.22;;;27.83;27.83
20971;BME280;10644;48.834;10.088;2023-05-29T11:26:56;96790.97;;;27.95;27.07
20971;BME280;10644;48.834;10.088;2023-05-29T11:29:29;96788.72;;;28.13;27.83
20971;BME280;10644;48.834;10.088;2023-05-29T11:34:28;96781.44;;;27.94;27.06
20971;BME280;10644;48.834;10.088;2023-05-29T11:36:53;96779.50;;;27.81;26.84
20971;BME280;10644;48.834;10.088;2023-05-29T11:39:19;96780.34;;;27.53;27.31
20971;BME280;10644;48.834;10.088;2023-05-29T11:41:45;96772.88;;;27.21;27.65
20971;BME280;10644;48.834;10.088;2023-05-29T11:44:15;96776.94;;;27.38;27.11
20971;BME280;10644;48.834;10.088;2023-05-29T11:46:40;96780.78;;;27.71;26.29
20971;BME280;10644;48.834;10.088;2023-05-29T11:49:05;96779.75;;;27.36;27.01
20971;BME280;10644;48.834;10.088;2023-05-29T11:51:31;96777.78;;;27.59;27.37
20971;BME280;10644;48.834;10.088;2023-05-29T11:53:57;96782.19;;;27.88;26.64
20971;BME280;10644;48.834;10.088;2023-05-29T11:56:26;96786.34;;;27.97;26.62
20971;BME280;10644;48.834;10.088;2023-05-29T11:58:52;96780.38;;;27.74;27.09
20971;BME280;10644;48.834;10.088;2023-05-29T12:01:21;96779.31;;;27.83;27.27
20971;BME280;10644;48.834;10.088;2023-05-29T12:03:51;96777.06;;;28.22;27.13
20971;BME280;10644;48.834;10.088;2023-05-29T12:06:35;96785.94;;;27.79;27.10
20971;BME280;10644;48.834;10.088;2023-05-29T12:09:02;96781.72;;;27.49;27.52
20971;BME280;10644;48.834;10.088;2023-05-29T12:11:29;96782.63;;;27.56;27.50
20971;BME280;10644;48.834;10.088;2023-05-29T12:13:58;96774.94;;;27.75;27.17
20971;BME280;10644;48.834;10.088;2023-05-29T12:16:25;96776.03;;;27.66;26.98
20971;BME280;10644;48.834;10.088;2023-05-29T12:18:52;96781.72;;;27.99;25.38
20971;BME280;10644;48.834;10.088;2023-05-29T12:21:17;96784.56;;;28.04;25.06
20971;BME280;10644;48.834;10.088;2023-05-29T12:23:43;96783.31;;;28.21;25.15
20971;BME280;10644;48.834;10.088;2023-05-29T12:26:08;96776.31;;;28.28;25.24
20971;BME280;10644;48.834;10.088;2023-05-29T12:28:34;96765.22;;;28.60;25.03
20971;BME280;10644;48.834;10.088;2023-05-29T12:30:59;96764.50;;;28.45;25.09
20971;BME280;10644;48.834;10.088;2023-05-29T12:33:29;96769.72;;;28.66;24.92
20971;BME280;10644;48.834;10.088;2023-05-29T12:36:03;96776.28;;;29.04;25.07
20971;BME280;10644;48.834;10.088;2023-05-29T12:38:29;96777.59;;;28.59;24.48
20971;BME280;10644;48.834;10.088;2023-05-29T12:40:55;96772.59;;;28.71;24.79
20971;BME280;10644;48.834;10.088;2023-05-29T12:43:23;96773.56;;;28.91;23.75
20971;BME280;10644;48.834;10.088;2023-05-29T12:45:54;96761.94;;;29.13;24.03
20971;BME280;10644;48.834;10.088;2023-05-29T12:48:20;96782.31;;;29.25;22.90
20971;BME280;10644;48.834;10.088;2023-05-29T12:50:48;96766.53;;;29.38;22.44
20971;BME280;10644;48.834;10.088;2023-05-29T12:53:15;96778.25;;;29.29;22.14
20971;BME280;10644;48.834;10.088;2023-05-29T12:55:43;96763.56;;;29.14;22.75
20971;BME280;10644;48.834;10.088;2023-05-29T12:58:12;96769.50;;;29.22;22.93
20971;BME280;10644;48.834;10.088;2023-05-29T13:00:40;96770.16;;;29.31;22.99
20971;BME280;10644;48.834;10.088;2023-05-29T13:03:07;96772.69;;;29.52;22.40
20971;BME280;10644;48.834;10.088;2023-05-29T13:05:36;96765.44;;;29.60;22.57
20971;BME280;10644;48.834;10.088;2023-05-29T13:08:01;96762.78;;;29.67;22.88
20971;BME280;10644;48.834;10.088;2023-05-29T13:10:27;96756.19;;;29.97;22.60